Time;durP1;ratioP1;P1;durP2;ratioP2;P2;SDS_P1;SDS_P2;PMS_P1;PMS_P2;Temp;Humidity;BMP_temperature;BMP_pressure;BME280_temperature;BME280_humidity;BME280_pressure;Samples;Min_cycle;Max_cycle;Signal;HPM_P1;HPM_P2
2023/12/20 00:02:05;;;;;;;;;;;;;;;0.34;80.87;100667.00;5448049;32;34584;-83
2023/12/20 00:05:08;;;;;;;;;;;;;;;-0.44;83.12;100665.47;5466863;32;35321;-83
2023/12/20 00:08:10;;;;;;;;;;;;;;;0.11;82.68;100647.84;5463147;32;35193;-84
2023/12/20 00:11:12;;;;;;;;;;;;;;;0.80;80.52;100654.31;5469214;32;35660;-84
2023/12/20 00:14:14;;;;;;;;;;;;;;;1.01;77.15;100649.22;5462795;32;35475;-82
2023/12/20 00:17:16;;;;;;;;;;;;;;;0.75;79.20;100651.69;5465199;32;34813;-84
2023/12/20 00:20:18;;;;;;;;;;;;;;;0.95;77.33;100651.78;5465635;32;34795;-84
2023/12/20 00:23:23;;;;;;;;;;;;;;;1.39;76.81;100637.28;5450544;32;34329;-75
2023/12/20 00:26:25;;;;;;;;;;;;;;;0.52;76.87;100638.66;5468661;32;34656;-75
2023/12/20 00:29:27;;;;;;;;;;;;;;;0.16;78.90;100641.88;5450764;32;34832;-74
2023/12/20 00:32:29;;;;;;;;;;;;;;;0.01;80.87;100638.31;5469565;32;35459;-74
2023/12/20 00:35:32;;;;;;;;;;;;;;;0.29;80.40;100623.84;5465084;32;34687;-76
2023/12/20 00:38:34;;;;;;;;;;;;;;;0.78;76.93;100617.25;5467472;32;35219;-82
2023/12/20 00:41:36;;;;;;;;;;;;;;;1.55;74.79;100610.53;5468884;32;34906;-76
2023/12/20 00:44:38;;;;;;;;;;;;;;;0.40;78.19;100606.69;5465145;32;35089;-75
2023/12/20 00:47:40;;;;;;;;;;;;;;;0.61;77.36;100606.81;5470867;32;34209;-76
2023/12/20 00:50:43;;;;;;;;;;;;;;;-0.27;81.83;100588.97;5464987;32;34772;-76
2023/12/20 00:53:49;;;;;;;;;;;;;;;0.01;82.66;100592.66;5468010;32;35872;-76
2023/12/20 00:56:51;;;;;;;;;;;;;;;-1.03;84.84;100590.81;5466882;32;34413;-74
2023/12/20 00:59:53;;;;;;;;;;;;;;;-0.06;83.42;100581.41;5466058;32;34385;-74
2023/12/20 01:02:56;;;;;;;;;;;;;;;-0.06;81.07;100580.56;5470687;32;34385;-75
2023/12/20 01:05:58;;;;;;;;;;;;;;;0.11;81.09;100573.75;5464958;32;34773;-83
2023/12/20 01:09:00;;;;;;;;;;;;;;;-0.36;83.11;100581.19;5469684;32;34775;-75
2023/12/20 01:12:02;;;;;;;;;;;;;;;-0.66;83.73;100574.88;5448918;32;34922;-80
2023/12/20 01:15:05;;;;;;;;;;;;;;;0.07;82.66;100571.16;5469462;32;34793;-80
2023/12/20 01:18:14;;;;;;;;;;;;;;;0.19;81.31;100566.03;5465562;32;35066;-73
2023/12/20 01:21:16;;;;;;;;;;;;;;;0.25;80.09;100558.31;5464171;32;34533;-74
2023/12/20 01:24:18;;;;;;;;;;;;;;;0.12;81.14;100559.97;5455301;32;35143;-74
2023/12/20 01:27:20;;;;;;;;;;;;;;;0.26;80.11;100552.31;5449172;32;34737;-83
2023/12/20 01:30:23;;;;;;;;;;;;;;;0.60;78.81;100549.91;5468983;32;34732;-84
2023/12/20 01:33:25;;;;;;;;;;;;;;;0.54;80.06;100546.41;5465853;32;35079;-74
2023/12/20 01:36:27;;;;;;;;;;;;;;;0.28;79.12;100540.25;5468554;32;35227;-80
2023/12/20 01:39:29;;;;;;;;;;;;;;;-0.10;80.33;100533.16;5450934;32;34800;-83
2023/12/20 01:42:31;;;;;;;;;;;;;;;0.61;79.42;100520.56;5465641;32;35157;-83
2023/12/20 01:45:34;;;;;;;;;;;;;;;0.53;79.22;100521.41;5468610;32;34838;-75
2023/12/20 01:48:36;;;;;;;;;;;;;;;0.49;77.88;100509.31;5463327;32;34271;-75
2023/12/20 01:51:38;;;;;;;;;;;;;;;0.54;78.81;100515.37;5451386;32;35064;-73
2023/12/20 01:54:41;;;;;;;;;;;;;;;0.52;77.76;100504.19;5444871;32;34882;-74
2023/12/20 01:57:43;;;;;;;;;;;;;;;0.33;80.28;100502.38;5469139;32;34088;-73
2023/12/20 02:00:46;;;;;;;;;;;;;;;-0.07;81.83;100499.56;5463766;32;34961;-74
2023/12/20 02:03:48;;;;;;;;;;;;;;;0.13;79.56;100484.19;5458990;32;34925;-84
2023/12/20 02:06:52;;;;;;;;;;;;;;;-0.28;82.86;100469.31;5465630;32;34827;-75
2023/12/20 02:09:54;;;;;;;;;;;;;;;-0.45;82.97;100470.03;5464031;32;35497;-80
2023/12/20 02:12:56;;;;;;;;;;;;;;;-0.10;83.51;100458.22;5443005;32;34584;-83
2023/12/20 02:15:59;;;;;;;;;;;;;;;0.38;80.39;100454.09;5466312;32;35911;-73
2023/12/20 02:19:02;;;;;;;;;;;;;;;-0.25;82.50;100455.56;5466154;32;34893;-82
2023/12/20 02:22:05;;;;;;;;;;;;;;;-0.09;82.93;100454.78;5449809;32;35025;-84
2023/12/20 02:25:08;;;;;;;;;;;;;;;-0.03;82.37;100443.63;5463338;32;35375;-75
2023/12/20 02:28:10;;;;;;;;;;;;;;;0.73;79.91;100440.41;5466327;32;34107;-82
2023/12/20 02:31:12;;;;;;;;;;;;;;;0.81;80.45;100439.56;5424063;32;863092;-83
2023/12/20 02:34:14;;;;;;;;;;;;;;;-0.09;81.99;100439.28;5466457;32;35227;-74
2023/12/20 02:37:17;;;;;;;;;;;;;;;-0.04;82.94;100434.13;5454113;32;34812;-84
2023/12/20 02:40:19;;;;;;;;;;;;;;;0.09;83.67;100432.47;5453614;32;35414;-79
2023/12/20 02:43:21;;;;;;;;;;;;;;;-0.07;83.41;100427.22;5467729;32;34916;-79
2023/12/20 02:46:37;;;;;;;;;;;;;;;0.09;82.62;100423.00;5449874;32;34974;-85
2023/12/20 02:49:40;;;;;;;;;;;;;;;0.58;82.16;100417.09;5452058;32;34289;-83
2023/12/20 02:52:44;;;;;;;;;;;;;;;0.40;80.30;100407.59;5467043;32;34613;-81
2023/12/20 02:55:46;;;;;;;;;;;;;;;1.24;78.76;100402.50;5468364;32;34231;-84
2023/12/20 02:58:48;;;;;;;;;;;;;;;0.59;79.73;100400.75;5463383;32;34882;-74
2023/12/20 03:01:50;;;;;;;;;;;;;;;0.94;78.86;100399.03;5463112;32;34936;-75
2023/12/20 03:04:53;;;;;;;;;;;;;;;0.60;81.01;100376.59;5469474;32;35174;-74
2023/12/20 03:07:55;;;;;;;;;;;;;;;0.14;83.18;100400.63;5464827;32;34980;-74
2023/12/20 03:10:58;;;;;;;;;;;;;;;-0.05;81.53;100404.84;5469795;32;35149;-76
2023/12/20 03:14:01;;;;;;;;;;;;;;;0.68;81.56;100396.44;5464052;32;34647;-75
2023/12/20 03:17:03;;;;;;;;;;;;;;;0.84;82.27;100384.38;5468136;32;34817;-84
2023/12/20 03:20:05;;;;;;;;;;;;;;;0.05;83.35;100390.25;5465400;32;34252;-82
2023/12/20 03:23:08;;;;;;;;;;;;;;;0.62;81.63;100403.31;5463367;32;34773;-83
2023/12/20 03:26:10;;;;;;;;;;;;;;;0.36;82.05;100398.09;5467769;32;34404;-74
2023/12/20 03:29:12;;;;;;;;;;;;;;;0.71;82.80;100396.44;5464115;32;35011;-74
2023/12/20 03:32:14;;;;;;;;;;;;;;;0.92;80.85;100395.59;5451518;32;34442;-74
2023/12/20 03:35:16;;;;;;;;;;;;;;;1.19;77.39;100399.03;5449950;32;35091;-82
2023/12/20 03:38:19;;;;;;;;;;;;;;;-0.19;82.32;100408.22;5458206;32;34870;-81
2023/12/20 03:41:21;;;;;;;;;;;;;;;-0.02;85.79;100404.00;5443751;32;34788;-74
2023/12/20 03:44:23;;;;;;;;;;;;;;;0.40;83.27;100398.12;5465117;32;35533;-83
2023/12/20 03:47:25;;;;;;;;;;;;;;;0.00;85.07;100404.88;5468165;32;34865;-84
2023/12/20 03:50:27;;;;;;;;;;;;;;;0.14;84.09;100402.34;5460015;32;34431;-82
2023/12/20 03:53:30;;;;;;;;;;;;;;;-0.53;86.22;100402.00;5469725;32;36190;-80
2023/12/20 03:56:32;;;;;;;;;;;;;;;0.09;84.97;100409.22;5468788;32;34926;-83
2023/12/20 03:59:37;;;;;;;;;;;;;;;-0.10;84.73;100401.38;5469751;32;34459;-76
2023/12/20 04:02:40;;;;;;;;;;;;;;;-0.14;83.44;100396.19;5449093;32;35001;-84
2023/12/20 04:05:42;;;;;;;;;;;;;;;-0.01;83.85;100385.91;5452042;32;34840;-82
2023/12/20 04:08:44;;;;;;;;;;;;;;;0.38;83.84;100380.84;5469192;32;35385;-82
2023/12/20 04:11:46;;;;;;;;;;;;;;;0.24;83.42;100370.47;5466318;32;34669;-75
2023/12/20 04:14:49;;;;;;;;;;;;;;;0.39;82.80;100374.84;5450538;32;34350;-82
2023/12/20 04:17:51;;;;;;;;;;;;;;;-0.03;83.81;100382.47;5445538;32;34537;-75
2023/12/20 04:20:53;;;;;;;;;;;;;;;0.40;85.39;100385.19;5448412;32;35564;-75
2023/12/20 04:23:55;;;;;;;;;;;;;;;0.70;84.80;100378.31;5467622;32;35657;-79
2023/12/20 04:26:57;;;;;;;;;;;;;;;-0.02;84.86;100375.56;5448984;32;35443;-73
2023/12/20 04:29:59;;;;;;;;;;;;;;;-0.42;85.93;100374.53;5467667;32;34251;-79
2023/12/20 04:33:02;;;;;;;;;;;;;;;-0.03;85.58;100359.22;5462348;32;34702;-75
2023/12/20 04:36:04;;;;;;;;;;;;;;;-0.61;86.19;100360.66;5467387;32;34945;-80
2023/12/20 04:39:06;;;;;;;;;;;;;;;-0.18;86.61;100346.25;5448981;32;35434;-74
2023/12/20 04:42:09;;;;;;;;;;;;;;;0.34;85.38;100348.97;5466351;32;35260;-80
2023/12/20 04:45:13;;;;;;;;;;;;;;;0.34;83.65;100338.63;5467649;32;35425;-85
2023/12/20 04:48:15;;;;;;;;;;;;;;;0.65;81.95;100336.09;5462682;32;34540;-81
2023/12/20 04:51:21;;;;;;;;;;;;;;;1.36;79.44;100322.19;5451557;32;34420;-82
2023/12/20 04:54:23;;;;;;;;;;;;;;;1.04;75.99;100311.91;5436713;32;36836;-74
2023/12/20 04:57:26;;;;;;;;;;;;;;;0.47;79.63;100306.75;5468060;32;34502;-82
2023/12/20 05:00:28;;;;;;;;;;;;;;;1.31;77.33;100308.41;5452119;32;34921;-84
2023/12/20 05:03:30;;;;;;;;;;;;;;;1.36;75.94;100301.47;5464158;32;34575;-74
2023/12/20 05:06:33;;;;;;;;;;;;;;;0.88;75.92;100292.94;5465279;32;32866;-84
2023/12/20 05:09:35;;;;;;;;;;;;;;;0.47;81.28;100295.56;5463629;32;34840;-75
2023/12/20 05:12:37;;;;;;;;;;;;;;;-0.01;81.75;100287.72;5467885;32;35431;-76
2023/12/20 05:15:39;;;;;;;;;;;;;;;0.76;80.51;100288.63;5466578;32;35346;-83
2023/12/20 05:18:41;;;;;;;;;;;;;;;0.21;79.71;100286.06;5469345;32;34751;-74
2023/12/20 05:21:43;;;;;;;;;;;;;;;-0.30;84.31;100279.03;5462819;32;34553;-74
2023/12/20 05:24:45;;;;;;;;;;;;;;;1.00;78.78;100267.03;5468172;32;34329;-75
2023/12/20 05:27:48;;;;;;;;;;;;;;;0.71;80.23;100271.37;5448506;32;34851;-73
2023/12/20 05:30:51;;;;;;;;;;;;;;;1.77;76.37;100272.81;5450835;32;34542;-76
2023/12/20 05:33:53;;;;;;;;;;;;;;;1.22;76.91;100265.25;5458133;32;34202;-82
2023/12/20 05:36:56;;;;;;;;;;;;;;;0.78;78.55;100296.41;5467204;32;35859;-74
2023/12/20 05:39:58;;;;;;;;;;;;;;;0.92;77.40;100301.56;5468895;32;34759;-76
2023/12/20 05:43:00;;;;;;;;;;;;;;;-0.10;82.20;100310.97;5464651;32;34467;-74
2023/12/20 05:46:03;;;;;;;;;;;;;;;0.38;81.28;100291.22;5467180;32;34506;-80
2023/12/20 05:49:05;;;;;;;;;;;;;;;1.73;75.45;100273.69;5468013;32;34509;-83
2023/12/20 05:52:07;;;;;;;;;;;;;;;1.18;77.18;100268.72;5463667;32;34650;-75
2023/12/20 05:55:09;;;;;;;;;;;;;;;1.08;78.89;100267.87;5470508;32;34590;-76
2023/12/20 05:58:12;;;;;;;;;;;;;;;1.74;75.00;100254.69;5451367;32;35302;-74
2023/12/20 06:01:16;;;;;;;;;;;;;;;2.28;73.34;100242.22;5454864;32;35034;-82
2023/12/20 06:04:19;;;;;;;;;;;;;;;2.02;73.75;100246.75;5465607;32;35041;-85
2023/12/20 06:07:24;;;;;;;;;;;;;;;2.18;73.55;100232.78;5464406;32;35348;-74
2023/12/20 06:10:26;;;;;;;;;;;;;;;1.85;72.01;100241.66;5468398;32;34909;-81
2023/12/20 06:13:28;;;;;;;;;;;;;;;2.09;73.54;100240.66;5447984;32;34052;-74
2023/12/20 06:16:30;;;;;;;;;;;;;;;1.60;75.99;100236.59;5466298;32;34416;-83
2023/12/20 06:19:32;;;;;;;;;;;;;;;1.47;76.03;100234.94;5463397;32;34177;-84
2023/12/20 06:22:35;;;;;;;;;;;;;;;1.49;77.99;100233.22;5469360;32;34728;-76
2023/12/20 06:25:37;;;;;;;;;;;;;;;2.23;75.65;100240.53;5462707;32;35202;-83
2023/12/20 06:28:39;;;;;;;;;;;;;;;1.72;78.00;100246.03;5463720;32;34301;-74
2023/12/20 06:31:43;;;;;;;;;;;;;;;2.51;74.56;100229.06;5465867;32;35344;-75
2023/12/20 06:34:45;;;;;;;;;;;;;;;2.13;74.04;100222.47;5465505;32;35837;-74
2023/12/20 06:37:47;;;;;;;;;;;;;;;2.38;73.85;100235.22;5466620;32;38068;-85
2023/12/20 06:40:49;;;;;;;;;;;;;;;2.04;73.00;100243.25;5463688;32;34394;-74
2023/12/20 06:43:52;;;;;;;;;;;;;;;2.42;73.81;100258.53;5453362;32;34634;-83
2023/12/20 06:46:55;;;;;;;;;;;;;;;1.47;76.52;100267.75;5466220;32;33353;-85
2023/12/20 06:49:57;;;;;;;;;;;;;;;1.88;75.37;100272.75;5456757;32;34097;-85
2023/12/20 06:53:06;;;;;;;;;;;;;;;2.85;72.24;100276.34;5464097;32;34885;-76
2023/12/20 06:56:10;;;;;;;;;;;;;;;2.49;71.49;100290.47;5456116;32;35188;-77
2023/12/20 06:59:12;;;;;;;;;;;;;;;0.63;78.44;100291.22;5461281;32;35754;-80
2023/12/20 07:02:14;;;;;;;;;;;;;;;0.82;80.35;100300.69;5459446;32;34849;-75
2023/12/20 07:05:17;;;;;;;;;;;;;;;1.51;76.73;100297.97;5444985;32;34362;-73
2023/12/20 07:08:19;;;;;;;;;;;;;;;1.54;77.00;100297.94;5434618;32;34762;-73
2023/12/20 07:11:21;;;;;;;;;;;;;;;0.92;80.45;100299.84;5455854;32;34997;-76
2023/12/20 07:14:23;;;;;;;;;;;;;;;0.45;82.22;100300.72;5451300;32;34943;-75
2023/12/20 07:17:25;;;;;;;;;;;;;;;0.71;82.42;100297.25;5448171;32;34524;-70
2023/12/20 07:20:27;;;;;;;;;;;;;;;1.51;79.04;100280.69;5462038;32;34513;-85
2023/12/20 07:23:30;;;;;;;;;;;;;;;0.82;80.58;100296.38;5445338;32;34388;-77
2023/12/20 07:26:32;;;;;;;;;;;;;;;0.61;81.64;100290.38;5454172;32;35872;-87
2023/12/20 07:29:34;;;;;;;;;;;;;;;1.18;79.65;100278.22;5453758;32;35111;-77
2023/12/20 07:32:36;;;;;;;;;;;;;;;1.25;78.69;100277.34;5458872;32;34459;-75
2023/12/20 07:35:39;;;;;;;;;;;;;;;1.54;78.77;100287.56;5450392;32;35562;-82
2023/12/20 07:38:44;;;;;;;;;;;;;;;1.52;77.69;100287.59;5447377;32;34749;-77
2023/12/20 07:41:46;;;;;;;;;;;;;;;1.52;77.99;100292.78;5461061;32;34456;-76
2023/12/20 07:44:48;;;;;;;;;;;;;;;1.20;79.63;100302.38;5445958;32;34567;-72
2023/12/20 07:47:50;;;;;;;;;;;;;;;2.06;75.91;100292.50;5445730;32;34789;-77
2023/12/20 07:50:53;;;;;;;;;;;;;;;1.24;79.30;100289.44;5459915;32;35589;-76
2023/12/20 07:53:55;;;;;;;;;;;;;;;1.47;77.42;100276.38;5442932;32;35805;-77
2023/12/20 07:56:57;;;;;;;;;;;;;;;2.16;73.49;100273.44;5464440;32;35501;-83
2023/12/20 07:59:59;;;;;;;;;;;;;;;2.54;72.06;100272.28;5446716;32;34429;-76
2023/12/20 08:03:03;;;;;;;;;;;;;;;0.87;78.58;100272.25;5462998;32;34090;-74
2023/12/20 08:06:05;;;;;;;;;;;;;;;1.71;78.11;100269.38;5461828;32;36120;-77
2023/12/20 08:09:07;;;;;;;;;;;;;;;1.44;75.41;100268.63;5448488;32;34368;-80
2023/12/20 08:12:09;;;;;;;;;;;;;;;0.91;79.31;100263.63;5464076;32;35070;-78
2023/12/20 08:15:11;;;;;;;;;;;;;;;1.44;79.17;100266.06;5462111;32;33218;-75
2023/12/20 08:18:14;;;;;;;;;;;;;;;1.34;77.31;100257.44;5462414;32;35295;-76
2023/12/20 08:21:16;;;;;;;;;;;;;;;1.57;78.50;100267.72;5445702;32;34323;-79
2023/12/20 08:24:17;;;;;;;;;;;;;;;1.75;75.76;100263.31;5463994;32;34146;-82
2023/12/20 08:27:20;;;;;;;;;;;;;;;1.84;75.48;100260.66;5439612;32;34876;-75
2023/12/20 08:30:22;;;;;;;;;;;;;;;1.46;75.29;100272.06;5461352;32;35607;-77
2023/12/20 08:33:24;;;;;;;;;;;;;;;1.01;77.97;100280.84;5464481;32;34597;-73
2023/12/20 08:36:26;;;;;;;;;;;;;;;1.27;77.36;100271.28;5463938;32;34240;-72
2023/12/20 08:39:29;;;;;;;;;;;;;;;2.54;73.19;100265.38;5462359;32;36298;-77
2023/12/20 08:42:31;;;;;;;;;;;;;;;1.05;75.81;100282.56;5446331;32;34299;-75
2023/12/20 08:45:33;;;;;;;;;;;;;;;1.37;78.47;100266.94;5460811;32;34341;-76
2023/12/20 08:48:36;;;;;;;;;;;;;;;1.67;76.99;100272.84;5461497;32;35688;-72
2023/12/20 08:51:40;;;;;;;;;;;;;;;1.75;75.91;100274.56;5464248;32;34502;-78
2023/12/20 08:54:43;;;;;;;;;;;;;;;2.86;72.79;100272.00;5466149;32;34934;-77
2023/12/20 08:57:46;;;;;;;;;;;;;;;3.28;69.03;100265.50;5458553;32;35718;-74
2023/12/20 09:00:49;;;;;;;;;;;;;;;2.48;68.29;100273.19;5464757;32;34180;-71
2023/12/20 09:03:51;;;;;;;;;;;;;;;1.70;77.11;100267.66;5460457;32;34767;-75
2023/12/20 09:06:53;;;;;;;;;;;;;;;2.72;74.40;100251.38;5450298;32;34292;-75
2023/12/20 09:09:56;;;;;;;;;;;;;;;3.03;70.16;100282.22;5433621;32;35546;-80
2023/12/20 09:12:58;;;;;;;;;;;;;;;3.11;69.10;100270.87;5460842;32;34270;-73
2023/12/20 09:16:00;;;;;;;;;;;;;;;2.60;70.22;100264.47;5462919;32;36167;-71
2023/12/20 09:19:02;;;;;;;;;;;;;;;2.63;70.40;100259.22;5457508;32;35174;-74
2023/12/20 09:22:04;;;;;;;;;;;;;;;2.10;73.76;100263.97;5459739;32;34990;-70
2023/12/20 09:25:07;;;;;;;;;;;;;;;1.69;76.58;100268.53;5444533;32;34825;-70
2023/12/20 09:28:09;;;;;;;;;;;;;;;2.21;70.80;100253.53;5448158;32;34478;-79
2023/12/20 09:31:11;;;;;;;;;;;;;;;1.93;74.70;100259.75;5446137;32;34889;-75
2023/12/20 09:34:15;;;;;;;;;;;;;;;2.15;73.04;100253.56;5457780;32;35390;-75
2023/12/20 09:37:17;;;;;;;;;;;;;;;3.37;69.85;100238.56;5464130;32;35165;-71
2023/12/20 09:40:19;;;;;;;;;;;;;;;2.86;69.78;100227.88;5445567;32;35297;-68
2023/12/20 09:43:22;;;;;;;;;;;;;;;3.49;69.22;100221.09;5461916;32;34368;-73
2023/12/20 09:46:24;;;;;;;;;;;;;;;2.63;70.84;100222.91;5446921;32;33795;-71
2023/12/20 09:49:27;;;;;;;;;;;;;;;2.42;72.68;100227.41;5459011;32;34322;-74
2023/12/20 09:52:29;;;;;;;;;;;;;;;2.15;72.91;100219.87;5455592;32;34723;-69
2023/12/20 09:55:32;;;;;;;;;;;;;;;3.20;70.21;100226.63;5458492;32;35027;-71
2023/12/20 09:58:36;;;;;;;;;;;;;;;2.77;70.85;100213.28;5447373;32;34762;-69
2023/12/20 10:01:38;;;;;;;;;;;;;;;2.55;71.12;100202.22;5459759;32;34308;-69
2023/12/20 10:04:42;;;;;;;;;;;;;;;3.41;69.78;100201.25;5432603;32;35635;-74
2023/12/20 10:07:45;;;;;;;;;;;;;;;2.89;70.44;100205.34;5439699;32;35380;-69
2023/12/20 10:10:48;;;;;;;;;;;;;;;3.11;70.51;100192.97;5459264;32;43212;-69
2023/12/20 10:13:50;;;;;;;;;;;;;;;2.32;71.92;100193.78;5462528;32;34983;-72
2023/12/20 10:16:55;;;;;;;;;;;;;;;4.22;67.39;100181.88;5457895;32;34959;-70
2023/12/20 10:19:58;;;;;;;;;;;;;;;3.70;67.94;100175.75;5450852;32;35282;-76
2023/12/20 10:23:00;;;;;;;;;;;;;;;4.51;65.75;100177.06;5456889;32;35151;-74
2023/12/20 10:26:02;;;;;;;;;;;;;;;4.04;66.52;100183.03;5448493;32;34717;-78
2023/12/20 10:29:04;;;;;;;;;;;;;;;4.04;66.97;100167.44;5458101;32;34341;-72
2023/12/20 10:32:23;;;;;;;;;;;;;;;3.25;69.56;100154.72;5453087;32;35640;-75
2023/12/20 10:35:26;;;;;;;;;;;;;;;4.06;68.42;100131.87;5455629;32;35774;-72
2023/12/20 10:38:30;;;;;;;;;;;;;;;3.69;68.00;100134.19;5441479;32;34915;-75
2023/12/20 10:41:32;;;;;;;;;;;;;;;3.47;68.51;100128.44;5449419;32;34759;-72
2023/12/20 10:44:35;;;;;;;;;;;;;;;3.82;68.13;100120.12;5445355;32;34334;-74
2023/12/20 10:47:37;;;;;;;;;;;;;;;3.86;67.79;100113.12;5463245;32;36173;-74
2023/12/20 10:50:41;;;;;;;;;;;;;;;4.84;65.47;100110.47;5446025;32;34703;-74
2023/12/20 10:53:43;;;;;;;;;;;;;;;4.97;64.15;100103.28;5455696;32;34982;-73
2023/12/20 10:56:49;;;;;;;;;;;;;;;4.77;65.13;100088.06;5453784;32;34331;-74
2023/12/20 10:59:51;;;;;;;;;;;;;;;5.27;63.63;100095.69;5460680;32;35500;-73
2023/12/20 11:02:52;;;;;;;;;;;;;;;5.79;62.02;100089.25;5449816;32;34928;-70
2023/12/20 11:05:58;;;;;;;;;;;;;;;6.32;60.01;100100.16;5448225;32;34516;-75
2023/12/20 11:09:09;;;;;;;;;;;;;;;5.02;64.13;100105.75;5450059;32;35000;-76
2023/12/20 11:12:20;;;;;;;;;;;;;;;5.56;63.75;100095.03;5446774;32;34852;-72
2023/12/20 11:15:22;;;;;;;;;;;;;;;6.08;63.28;100091.19;5435151;32;34928;-74
2023/12/20 11:18:30;;;;;;;;;;;;;;;5.64;64.91;100075.69;5465975;32;32846;-75
2023/12/20 11:21:32;;;;;;;;;;;;;;;5.38;66.52;100078.91;5456969;32;35798;-79
2023/12/20 11:24:37;;;;;;;;;;;;;;;5.76;65.31;100061.50;5464146;32;34730;-74
2023/12/20 11:27:45;;;;;;;;;;;;;;;5.81;64.31;100051.84;5458512;32;34906;-71
2023/12/20 11:30:51;;;;;;;;;;;;;;;7.13;60.84;100035.16;5447063;32;34657;-79
2023/12/20 11:33:56;;;;;;;;;;;;;;;6.88;61.81;100032.41;5448863;32;35643;-79
2023/12/20 11:37:02;;;;;;;;;;;;;;;7.62;59.86;100024.00;5447136;32;36053;-77
2023/12/20 11:40:09;;;;;;;;;;;;;;;8.14;57.80;100009.16;5446833;32;35559;-72
2023/12/20 11:43:11;;;;;;;;;;;;;;;7.79;58.29;100013.84;5457897;32;34374;-73
2023/12/20 11:46:13;;;;;;;;;;;;;;;8.31;57.92;100022.50;5459327;32;35012;-77
2023/12/20 11:49:15;;;;;;;;;;;;;;;7.90;58.73;100031.78;5458854;32;34563;-73
2023/12/20 11:52:17;;;;;;;;;;;;;;;9.23;56.03;100019.09;5459230;32;34173;-77
2023/12/20 11:55:20;;;;;;;;;;;;;;;10.16;52.14;100012.59;5452699;32;36026;-71
2023/12/20 11:58:22;;;;;;;;;;;;;;;9.51;52.59;100018.84;5461902;32;35147;-72
2023/12/20 12:01:25;;;;;;;;;;;;;;;9.32;53.98;100016.09;5439235;32;34862;-75
2023/12/20 12:04:30;;;;;;;;;;;;;;;9.42;54.73;100020.06;5460517;32;36025;-74
2023/12/20 12:07:33;;;;;;;;;;;;;;;8.89;56.01;100006.44;5461647;32;34148;-73
2023/12/20 12:10:36;;;;;;;;;;;;;;;10.39;52.15;99993.25;5463872;32;34439;-73
2023/12/20 12:13:38;;;;;;;;;;;;;;;10.19;52.67;99999.34;5452687;32;35291;-74
2023/12/20 12:16:41;;;;;;;;;;;;;;;9.53;54.65;100006.50;5463881;32;35871;-73
2023/12/20 12:19:43;;;;;;;;;;;;;;;8.11;58.84;100012.75;5459821;32;34299;-76
2023/12/20 12:22:47;;;;;;;;;;;;;;;7.92;59.70;99997.69;5448055;32;34925;-74
2023/12/20 12:25:49;;;;;;;;;;;;;;;8.11;60.03;100001.38;5463640;32;35326;-79
2023/12/20 12:28:51;;;;;;;;;;;;;;;7.97;61.41;99994.03;5464180;32;33435;-73
2023/12/20 12:31:53;;;;;;;;;;;;;;;7.60;62.45;100018.84;5467387;32;34393;-75
2023/12/20 12:34:55;;;;;;;;;;;;;;;7.95;62.71;100003.69;5461476;32;34493;-69
2023/12/20 12:37:58;;;;;;;;;;;;;;;7.37;64.06;100016.09;5469669;32;34184;-84
2023/12/20 12:41:00;;;;;;;;;;;;;;;6.83;65.58;100013.41;5438809;32;34453;-81
2023/12/20 12:44:03;;;;;;;;;;;;;;;8.34;61.82;100000.59;5465243;32;35494;-78
2023/12/20 12:47:18;;;;;;;;;;;;;;;7.98;62.98;100010.56;5451405;32;35669;-72
2023/12/20 12:50:21;;;;;;;;;;;;;;;7.17;65.77;100013.25;5455096;32;34299;-70
2023/12/20 12:53:26;;;;;;;;;;;;;;;7.07;65.51;100025.72;5463143;32;34296;-72
2023/12/20 12:56:30;;;;;;;;;;;;;;;7.41;65.25;100020.34;5459659;32;38203;-77
2023/12/20 12:59:32;;;;;;;;;;;;;;;7.25;65.52;100016.47;5449940;32;34244;-73
2023/12/20 13:02:37;;;;;;;;;;;;;;;6.71;66.55;100020.72;5463714;32;34362;-73
2023/12/20 13:05:39;;;;;;;;;;;;;;;6.36;67.66;100015.62;5457952;32;35571;-76
2023/12/20 13:08:45;;;;;;;;;;;;;;;6.42;67.54;100013.69;5463548;32;35373;-75
2023/12/20 13:11:47;;;;;;;;;;;;;;;6.75;67.54;100017.09;5463160;32;34419;-75
2023/12/20 13:14:49;;;;;;;;;;;;;;;6.32;68.11;100021.84;5467861;32;34087;-75
2023/12/20 13:17:51;;;;;;;;;;;;;;;6.93;66.41;100015.69;5462584;32;36026;-76
2023/12/20 13:20:53;;;;;;;;;;;;;;;6.56;67.72;100018.53;5467536;32;34251;-69
2023/12/20 13:23:55;;;;;;;;;;;;;;;6.84;66.36;100009.91;5464727;32;34378;-78
2023/12/20 13:26:57;;;;;;;;;;;;;;;6.01;68.80;100009.63;5456088;32;35401;-73
2023/12/20 13:29:59;;;;;;;;;;;;;;;5.93;70.08;100002.00;5449988;32;34537;-69
2023/12/20 13:33:01;;;;;;;;;;;;;;;6.58;67.41;100003.69;5460879;32;34743;-68
2023/12/20 13:36:04;;;;;;;;;;;;;;;6.46;67.43;99998.81;5467817;32;34203;-75
2023/12/20 13:39:10;;;;;;;;;;;;;;;5.96;68.03;100011.47;5436798;32;35631;-76
2023/12/20 13:42:12;;;;;;;;;;;;;;;5.16;71.67;100009.97;5469582;32;34915;-73
2023/12/20 13:45:15;;;;;;;;;;;;;;;6.43;67.83;99996.28;5447237;32;35673;-77
2023/12/20 13:48:17;;;;;;;;;;;;;;;5.84;68.18;100007.41;5440657;32;34174;-72
2023/12/20 13:51:20;;;;;;;;;;;;;;;5.96;68.22;100003.66;5460343;32;34436;-72
2023/12/20 13:54:22;;;;;;;;;;;;;;;5.41;69.58;99999.81;5445971;32;34511;-76
2023/12/20 13:57:24;;;;;;;;;;;;;;;5.90;69.03;99996.81;5467809;32;35179;-69
2023/12/20 14:00:46;;;;;;;;;;;;;;;5.54;70.17;100000.34;5452453;32;34612;-69
2023/12/20 14:03:48;;;;;;;;;;;;;;;5.32;69.57;99997.41;5461849;32;34522;-70
2023/12/20 14:06:50;;;;;;;;;;;;;;;6.09;68.84;100004.19;5449353;32;35847;-77
2023/12/20 14:09:53;;;;;;;;;;;;;;;5.93;69.11;99993.31;5451338;32;34863;-70
2023/12/20 14:12:55;;;;;;;;;;;;;;;5.89;69.38;99997.72;5468757;32;34420;-67
2023/12/20 14:15:58;;;;;;;;;;;;;;;6.04;69.13;99999.09;5463325;32;34642;-68
2023/12/20 14:19:02;;;;;;;;;;;;;;;5.34;71.02;100004.28;5466902;32;34628;-70
2023/12/20 14:22:05;;;;;;;;;;;;;;;5.61;69.96;100021.03;5448247;32;34419;-72
2023/12/20 14:25:07;;;;;;;;;;;;;;;5.76;69.51;100016.31;5458852;32;34561;-68
2023/12/20 14:28:10;;;;;;;;;;;;;;;5.74;70.70;100008.56;5451612;32;34312;-69
2023/12/20 14:31:12;;;;;;;;;;;;;;;5.86;68.56;100002.13;5462857;32;36710;-69
2023/12/20 14:34:14;;;;;;;;;;;;;;;5.87;69.06;100003.88;5454509;32;34521;-82
2023/12/20 14:37:17;;;;;;;;;;;;;;;5.91;69.61;100006.37;5463987;32;35761;-81
2023/12/20 14:40:19;;;;;;;;;;;;;;;5.88;69.60;99997.75;5468558;32;35319;-78
2023/12/20 14:43:22;;;;;;;;;;;;;;;5.54;71.19;100008.16;5450115;32;35487;-78
2023/12/20 14:46:24;;;;;;;;;;;;;;;5.92;69.99;99999.41;5465876;32;34420;-83
2023/12/20 14:49:27;;;;;;;;;;;;;;;5.70;71.05;100014.72;5463918;32;37095;-69
2023/12/20 14:52:29;;;;;;;;;;;;;;;5.89;70.47;100015.12;5462216;32;35394;-79
2023/12/20 14:55:31;;;;;;;;;;;;;;;6.16;69.58;100008.34;5466313;32;34952;-70
2023/12/20 14:58:33;;;;;;;;;;;;;;;5.72;70.83;100010.31;5445479;32;34803;-85
2023/12/20 15:01:36;;;;;;;;;;;;;;;5.56;71.62;100019.44;5456638;32;34253;-73
2023/12/20 15:04:38;;;;;;;;;;;;;;;5.55;70.88;100030.75;5447644;32;35221;-81
2023/12/20 15:07:40;;;;;;;;;;;;;;;5.62;70.96;100029.72;5468117;32;34485;-71
2023/12/20 15:10:42;;;;;;;;;;;;;;;5.78;70.33;100043.22;5434961;32;34926;-70
2023/12/20 15:13:47;;;;;;;;;;;;;;;5.64;70.06;100035.72;5463503;32;34237;-72
2023/12/20 15:16:49;;;;;;;;;;;;;;;5.82;69.75;100044.88;5453489;32;35326;-75
2023/12/20 15:19:51;;;;;;;;;;;;;;;5.60;70.03;100041.91;5464700;32;34857;-68
2023/12/20 15:22:54;;;;;;;;;;;;;;;5.48;70.12;100048.28;5466110;32;34750;-69
2023/12/20 15:25:56;;;;;;;;;;;;;;;5.48;70.56;100061.34;5447453;32;35732;-70
2023/12/20 15:29:00;;;;;;;;;;;;;;;5.62;70.26;100061.00;5462234;32;34827;-75
2023/12/20 15:32:03;;;;;;;;;;;;;;;5.35;71.28;100071.19;5463062;32;34507;-75
2023/12/20 15:35:06;;;;;;;;;;;;;;;5.37;70.92;100077.22;5461007;32;36840;-69
2023/12/20 15:38:09;;;;;;;;;;;;;;;4.94;73.00;100074.66;5464979;32;34252;-69
2023/12/20 15:41:21;;;;;;;;;;;;;;;5.53;71.29;100076.84;5458690;32;35584;-68
2023/12/20 15:44:23;;;;;;;;;;;;;;;5.47;71.39;100079.59;5460681;32;35048;-82
2023/12/20 15:47:25;;;;;;;;;;;;;;;5.42;70.68;100080.56;5458465;32;35447;-68
2023/12/20 15:50:27;;;;;;;;;;;;;;;5.21;71.51;100090.59;5459181;32;34652;-69